AirNav   Duncan Aviation - Near you to keep you flying
 
 973 users online  

30NC Riverside Farm Airport
Advance, North Carolina, USA

GOING TO ADVANCE?


FAA INFORMATION EFFECTIVE 01 DECEMBER 2022

Location

FAA Identifier: 30NC
Lat/Long: 36-02-55.0000N 080-27-25.0000W
36-02.916667N 080-27.416667W
36.0486111,-80.4569444
(estimated)
Elevation: 705 ft. / 215 m (estimated)
Variation: 07W (1995)
From city: 7 miles N of ADVANCE, NC
Time zone: UTC -5 (UTC -4 during Daylight Saving Time)
Zip code: 27006

Airport Operations

Airport use: Private use. Permission required prior to landing
Activation date: 02/1998
Control tower: no
ARTCC: ATLANTA CENTER
FSS: RALEIGH FLIGHT SERVICE STATION
Attendance: UNATNDD
Segmented circle: no

Airport Communications

WX ASOS at INT (12 nm NE): PHONE 336-661-3096
WX AWOS-3 at EXX (18 nm SE): 119.825 (336-956-2967)

Nearby radio navigation aids

VOR radial/distance  VOR name  Freq  Var
GSOr273/23.3GREENSBORO VORTAC116.2003W
BZMr080/39.6BARRETTS MOUNTAIN VOR/DME113.7506W

 
NDB name  Hdg/Dist  Freq  Var  ID
REENO272/14.131707WIN .. -.
SLAMMER246/39.142307WSIF ... .. ..-.

Airport Services

Runway Information

Runway 16/34

Dimensions: 2700 x 50 ft. / 823 x 15 m
Surface: turf
RUNWAY 16  RUNWAY 34
Traffic pattern: leftleft
Obstructions: 50 ft. trees, 1320 ft. from runway50 ft. trees, 1320 ft. from runway

Airport Ownership and Management from official FAA records

Ownership: Privately-owned
Owner: JOE BUDD
201 MAPLEWOOD LANE
ADVANCE, NC 27006-7972
Phone 336-940-2451
ADNL PHONE (336) 659-5039.
Manager: JOE BUDD
201 MAPLEWOOD LN
ADVANCE, NC 27006
Phone 336-659-5039

Additional Remarks

ADNL PHONE 336-659-5039.
FOR CD CTC ATLANTA ARTCC AT 770-210-7692.

Instrument Procedures

There are no published instrument procedures at 30NC.

Some nearby airports with instrument procedures:

8A7 - Twin Lakes Airport (8 nm S)
KINT - Smith Reynolds Airport (12 nm NE)
KEXX - Davidson County Airport (18 nm SE)
KZEF - Elkin Municipal Airport (21 nm NW)
N63 - Meadow Brook Field Airport (21 nm NE)
 
Loc | Ops | Rwys | IFR | FBO | Links
Com | Nav | Svcs | Stats | Notes
Area around 30NC (Riverside Farm Airport)
 
Road maps at: MapQuest Bing Google
 
Aerial photo
WARNING: Photo may not be current or correct
Aerial photo of 30NC (Riverside Farm Airport)
Do you have a better or more recent aerial photo of Riverside Farm Airport that you would like to share? If so, please send us your photo.

 
Sectional chart

 
Airport distance calculator
Flying to Riverside Farm Airport? Find the distance to fly.

From to 30NC

Sunrise and sunset
Times for 06-Dec-2022
 Local
(UTC-5)
 Zulu
(UTC)
Morning civil twilight06:5111:51
Sunrise07:1912:19
Sunset17:0622:06
Evening civil twilight17:3522:35

Current date and time
Zulu (UTC)  07-Dec-2022 04:19:48
Local (UTC-5)  06-Dec-2022 23:19:48
 
METAR
KINT 
13nm NE 
070354Z AUTO 00000KT 1 1/2SM BR OVC002 09/09 A3025 RMK AO2 SLP243 T00940094
KEXX 
18nm SE 
070355Z AUTO 00000KT 1 1/4SM BR OVC002 09/09 A3027 RMK AO2 T00920092
KRUQ 
24nm S 
070355Z AUTO 00000KT 3/4SM BR OVC004 09/08 A3026 RMK AO2 T00860084
KGSO 
25nm E 
070354Z 25005KT 1/4SM R05R/3500V4500FT BR VV002 09/09 A3024 RMK AO2 SFC VIS 3/4 SLP241 T00940094
TAF
KINT 
13nm NE 
061728Z 0618/0718 30003KT 1 1/2SM -RA BR OVC003 FM062200 VRB02KT 1 1/2SM BR OVC003 FM070400 VRB02KT 1/2SM FG OVC002
NOTAMs
Click for the latest NOTAMs
NOTAMs are issued by the DoD/FAA and will open in a separate window not controlled by AirNav.

 

 
 

Would you like to see your business listed on this page?

 If your business provides an interesting product or service to pilots, flight crews, aircraft, or users of the Riverside Farm Airport, you should consider listing it here.  To start the listing process, click on the button below
 
Add a business
 

Other Pages about Riverside Farm Airport

Update a link
 
Copyright © AirNav, LLC. All rights reserved. Privacy Policy  Contact